Time;durP1;ratioP1;P1;durP2;ratioP2;P2;SDS_P1;SDS_P2;PMS_P1;PMS_P2;Temp;Humidity;BMP_temperature;BMP_pressure;BME280_temperature;BME280_humidity;BME280_pressure;Samples;Min_cycle;Max_cycle;Signal;HPM_P1;HPM_P2
2022/08/25 00:00:31;;;;;;;5.95;4.55;;;;;;;25.72;54.28;101428.94;2294967;75;52587;-73
2022/08/25 00:03:33;;;;;;;7.08;3.85;;;;;;;25.72;54.31;101435.71;2321853;75;50404;-74
2022/08/25 00:06:35;;;;;;;4.33;3.92;;;;;;;25.71;54.26;101428.61;2339506;74;50785;-75
2022/08/25 00:09:37;;;;;;;6.22;4.37;;;;;;;25.72;54.28;101433.53;2349945;74;50748;-73
2022/08/25 00:12:39;;;;;;;6.22;4.28;;;;;;;25.71;54.33;101432.67;2366899;75;51504;-74
2022/08/25 00:15:42;;;;;;;5.97;4.00;;;;;;;25.71;54.31;101421.00;2339239;75;51573;-74
2022/08/25 00:18:45;;;;;;;8.28;4.05;;;;;;;25.71;54.29;101428.61;2342727;72;51588;-73
2022/08/25 00:21:47;;;;;;;7.30;4.10;;;;;;;25.70;54.37;101426.95;2378509;74;50547;-73
2022/08/25 00:24:49;;;;;;;5.22;3.90;;;;;;;25.69;54.29;101421.23;2340849;74;49631;-73
2022/08/25 00:27:52;;;;;;;6.17;4.30;;;;;;;25.70;54.32;101420.70;2403859;74;50652;-73
2022/08/25 00:30:54;;;;;;;6.20;4.65;;;;;;;25.69;54.35;101415.81;2404116;73;51647;-74
2022/08/25 00:33:57;;;;;;;7.90;4.70;;;;;;;25.70;54.32;101417.47;2351054;74;52690;-75
2022/08/25 00:37:00;;;;;;;7.28;4.78;;;;;;;25.68;54.36;101404.64;2383688;74;50250;-74
2022/08/25 00:40:03;;;;;;;5.50;4.58;;;;;;;25.69;54.37;101409.53;2396699;74;51520;-74
2022/08/25 00:43:06;;;;;;;7.80;4.58;;;;;;;25.68;54.41;101403.81;2375176;74;51550;-74
2022/08/25 00:46:09;;;;;;;8.45;4.47;;;;;;;25.68;54.39;101407.35;2401866;74;50742;-74
2022/08/25 00:49:38;;;;;;;7.33;4.65;;;;;;;25.68;54.37;101405.17;2375915;74;51032;-74
2022/08/25 00:52:45;;;;;;;6.20;4.30;;;;;;;25.67;54.36;101408.41;2401772;74;50299;-75
2022/08/25 00:55:48;;;;;;;7.37;4.53;;;;;;;25.67;54.37;101412.47;2402043;74;50400;-74
2022/08/25 00:58:50;;;;;;;7.15;4.30;;;;;;;25.67;54.37;101409.77;2402023;74;50388;-74
2022/08/25 01:01:52;;;;;;;6.12;4.45;;;;;;;25.67;54.36;101400.81;2402067;74;50358;-75
2022/08/25 01:04:54;;;;;;;7.40;4.75;;;;;;;25.67;54.33;101407.58;2401785;74;51573;-75
2022/08/25 01:07:57;;;;;;;6.50;4.53;;;;;;;25.66;54.35;101416.73;2376769;73;51533;-74
2022/08/25 01:11:05;;;;;;;6.33;4.33;;;;;;;25.64;54.39;101411.02;2403957;74;50776;-73
2022/08/25 01:14:07;;;;;;;8.10;4.72;;;;;;;25.65;54.38;101419.98;2378404;74;50768;-75
2022/08/25 01:17:10;;;;;;;6.62;4.35;;;;;;;25.65;54.42;101422.69;2403796;74;50499;-74
2022/08/25 01:20:13;;;;;;;7.05;4.30;;;;;;;25.66;54.40;101422.98;2403976;74;51520;-73
2022/08/25 01:23:15;;;;;;;7.58;4.30;;;;;;;25.63;54.43;101413.41;2404005;72;51578;-74
2022/08/25 01:26:23;;;;;;;6.95;4.50;;;;;;;25.66;54.38;101415.39;2382809;74;51509;-73
2022/08/25 01:29:25;;;;;;;5.60;4.08;;;;;;;25.66;54.35;101408.61;2388641;74;50488;-73
2022/08/25 01:32:27;;;;;;;7.70;4.40;;;;;;;25.66;54.37;101406.73;2352175;74;49496;-73
2022/08/25 01:35:29;;;;;;;6.40;4.05;;;;;;;25.62;54.44;101407.69;2379207;74;50708;-74
2022/08/25 01:38:31;;;;;;;7.17;4.65;;;;;;;25.63;54.42;101405.27;2376191;74;52333;-74
2022/08/25 01:41:46;;;;;;;8.33;4.40;;;;;;;25.64;54.40;101412.91;2349555;74;51291;-74
2022/08/25 01:44:48;;;;;;;7.33;4.35;;;;;;;25.62;54.46;101413.10;2402513;74;50779;-74
2022/08/25 01:47:50;;;;;;;8.70;4.42;;;;;;;25.62;54.42;101409.04;2402119;74;50434;-73
2022/08/25 01:50:53;;;;;;;6.90;4.47;;;;;;;25.64;54.37;101412.91;2376739;74;51476;-73
2022/08/25 01:53:55;;;;;;;7.72;4.50;;;;;;;25.61;54.45;101410.59;2406650;74;50356;-73
2022/08/25 01:56:58;;;;;;;7.15;4.70;;;;;;;25.61;54.41;101408.74;2361777;74;50028;-74
2022/08/25 02:00:00;;;;;;;5.53;4.28;;;;;;;25.62;54.41;101405.50;2355388;74;51596;-73
2022/08/25 02:03:02;;;;;;;8.18;4.58;;;;;;;25.61;54.45;101401.11;2320823;75;50633;-73
2022/08/25 02:06:05;;;;;;;9.28;5.12;;;;;;;25.61;54.47;101399.75;2307188;75;50964;-73
2022/08/25 02:09:09;;;;;;;7.08;4.50;;;;;;;25.61;54.48;101403.81;2349040;75;50712;-73
2022/08/25 02:12:11;;;;;;;8.83;4.80;;;;;;;25.61;54.51;101399.75;2347587;75;50823;-73
2022/08/25 02:15:14;;;;;;;7.97;5.17;;;;;;;25.61;54.48;101395.69;2326356;75;50647;-73
2022/08/25 02:18:16;;;;;;;8.00;5.20;;;;;;;25.60;54.55;101396.22;2322038;75;50627;-73
2022/08/25 02:21:18;;;;;;;9.73;6.50;;;;;;;25.60;54.53;101394.86;2321919;75;52540;-74
2022/08/25 02:24:21;;;;;;;9.30;6.78;;;;;;;25.59;54.57;101393.73;2346920;75;50481;-73
2022/08/25 02:27:23;;;;;;;10.48;6.47;;;;;;;25.60;54.53;101389.97;2370410;73;51471;-73
2022/08/25 02:30:25;;;;;;;8.35;5.72;;;;;;;25.58;54.57;101390.70;2312388;75;51110;-73
2022/08/25 02:33:28;;;;;;;6.33;5.30;;;;;;;25.59;54.49;101383.72;2338913;75;51647;-74
2022/08/25 02:36:31;;;;;;;9.50;5.28;;;;;;;25.58;54.51;101380.68;2338901;75;51562;-74
2022/08/25 02:39:33;;;;;;;9.23;5.15;;;;;;;25.57;54.56;101374.97;2366615;75;51549;-74
2022/08/25 02:42:35;;;;;;;9.45;5.47;;;;;;;25.57;54.52;101366.01;2366549;75;50350;-74
2022/08/25 02:45:37;;;;;;;13.88;5.62;;;;;;;25.57;54.56;101374.14;2312600;75;49462;-73
2022/08/25 02:48:40;;;;;;;7.92;4.87;;;;;;;25.56;54.59;101368.39;2338775;75;50692;-73
2022/08/25 02:51:42;;;;;;;10.00;4.90;;;;;;;25.55;54.61;101373.51;2366533;75;51516;-74
2022/08/25 02:54:44;;;;;;;9.40;5.47;;;;;;;25.56;54.56;101373.81;2311375;75;51085;-74
2022/08/25 02:57:47;;;;;;;10.95;5.37;;;;;;;25.53;54.65;101369.64;2367911;74;50375;-74
2022/08/25 03:00:49;;;;;;;10.10;5.15;;;;;;;25.52;54.69;101368.00;2401934;74;50703;-74
2022/08/25 03:03:51;;;;;;;7.58;5.42;;;;;;;25.53;54.66;101372.88;2402035;74;51578;-74
2022/08/25 03:06:53;;;;;;;9.80;5.05;;;;;;;25.52;54.66;101367.17;2401803;73;50353;-73
2022/08/25 03:09:55;;;;;;;10.78;4.65;;;;;;;25.51;54.66;101358.70;2347531;73;49156;-73
2022/08/25 03:12:58;;;;;;;8.10;4.67;;;;;;;25.52;54.68;101359.03;2375485;74;50783;-73
2022/08/25 03:16:00;;;;;;;9.55;5.20;;;;;;;25.51;54.65;101354.14;2374508;74;51460;-74
2022/08/25 03:19:03;;;;;;;8.05;5.08;;;;;;;25.52;54.59;101353.62;2348419;74;51061;-74
2022/08/25 03:22:05;;;;;;;7.80;5.50;;;;;;;25.50;54.65;101358.41;2402001;73;51614;-74
2022/08/25 03:28:31;;;;;;;8.80;4.67;;;;;;;25.49;54.67;101349.98;2332429;75;22360;-74
2022/08/25 03:31:33;;;;;;;7.33;4.78;;;;;;;25.49;54.62;101352.70;2350200;75;22396;-74
2022/08/25 03:34:35;;;;;;;8.45;4.90;;;;;;;25.50;54.54;101350.28;2349861;75;50886;-74
2022/08/25 03:37:37;;;;;;;8.63;5.05;;;;;;;25.49;54.62;101349.98;2349765;75;52339;-74
2022/08/25 03:40:39;;;;;;;7.15;5.33;;;;;;;25.48;54.60;101339.64;2362472;75;51444;-74
2022/08/25 03:43:42;;;;;;;10.10;5.97;;;;;;;25.48;54.56;101339.64;2335172;75;52368;-74
2022/08/25 03:46:46;;;;;;;8.70;5.83;;;;;;;25.47;54.56;101335.81;2362305;74;51410;-75
2022/08/25 03:49:48;;;;;;;9.83;5.70;;;;;;;25.46;54.56;101348.53;2362518;74;50388;-74
2022/08/25 03:52:52;;;;;;;6.92;5.17;;;;;;;25.45;54.56;101340.07;2350047;75;50713;-73
2022/08/25 03:55:56;;;;;;;9.55;5.67;;;;;;;25.47;54.49;101335.28;2362325;72;50193;-73
2022/08/25 03:58:58;;;;;;;8.30;5.55;;;;;;;25.47;54.54;101345.30;2357140;75;52389;-73
2022/08/25 04:02:01;;;;;;;7.60;5.10;;;;;;;25.45;54.56;101340.60;2362572;74;51502;-73
2022/08/25 04:05:04;;;;;;;10.75;5.28;;;;;;;25.45;54.54;101343.31;2362662;75;51610;-73
2022/08/25 04:08:06;;;;;;;10.32;5.60;;;;;;;25.43;54.58;101351.64;2323089;75;51057;-73
2022/08/25 04:11:10;;;;;;;9.78;5.40;;;;;;;25.44;54.56;101353.33;2350017;75;51641;-74
2022/08/25 04:14:13;;;;;;;7.15;4.95;;;;;;;25.46;54.49;101357.16;2362572;74;51579;-74
2022/08/25 04:17:16;;;;;;;6.78;4.87;;;;;;;25.44;54.51;101356.56;2377083;74;50750;-74
2022/08/25 04:20:18;;;;;;;10.15;5.30;;;;;;;25.42;54.53;101354.05;2377357;74;50463;-74
2022/08/25 04:23:20;;;;;;;8.90;5.17;;;;;;;25.41;54.56;101354.58;2377471;74;51468;-73
2022/08/25 04:26:32;;;;;;;8.55;5.45;;;;;;;25.41;54.53;101353.22;2386571;74;50380;-74
2022/08/25 04:29:34;;;;;;;8.68;4.80;;;;;;;25.43;54.44;101365.19;2391910;74;50325;-74
2022/08/25 04:32:36;;;;;;;11.38;5.03;;;;;;;25.44;54.47;101366.05;2378150;74;50380;-72
2022/08/25 04:35:40;;;;;;;9.38;5.30;;;;;;;25.41;54.47;101368.66;2404233;74;50389;-72
2022/08/25 04:38:42;;;;;;;11.97;5.75;;;;;;;25.41;54.50;101366.77;2378238;74;51499;-75
2022/08/25 04:41:44;;;;;;;9.20;4.90;;;;;;;25.38;54.52;101365.84;2378087;74;50463;-73
2022/08/25 04:44:47;;;;;;;9.68;5.40;;;;;;;25.40;54.45;101368.33;2378291;74;50363;-73
2022/08/25 04:47:49;;;;;;;7.15;4.87;;;;;;;25.39;54.56;101362.08;2377689;73;52646;-72
2022/08/25 04:50:52;;;;;;;10.98;5.08;;;;;;;25.40;54.67;101366.97;2378318;74;51507;-72
2022/08/25 04:53:54;;;;;;;8.63;4.85;;;;;;;25.41;54.57;101368.13;2403948;74;51477;-72
2022/08/25 04:56:56;;;;;;;7.65;5.37;;;;;;;25.40;54.58;101363.73;2343365;75;50915;-74
2022/08/25 04:59:58;;;;;;;7.25;5.30;;;;;;;25.39;54.57;101359.37;2396452;74;51510;-74
2022/08/25 05:03:01;;;;;;;7.40;5.20;;;;;;;25.39;54.56;101360.73;2405881;74;51488;-74
2022/08/25 05:06:04;;;;;;;7.83;5.33;;;;;;;25.39;54.64;101358.02;2391820;72;51569;-74
2022/08/25 05:09:06;;;;;;;10.38;5.75;;;;;;;25.39;54.62;101361.25;2375891;74;50364;-74
2022/08/25 05:12:08;;;;;;;8.73;5.80;;;;;;;25.39;54.61;101361.25;2349824;75;50832;-74
2022/08/25 05:18:31;;;;;;;11.48;5.75;;;;;;;25.39;54.56;101366.14;2352098;75;22269;-74
2022/08/25 05:21:34;;;;;;;8.05;5.80;;;;;;;25.38;54.51;101371.27;2349914;75;51065;-74
2022/08/25 05:24:36;;;;;;;13.93;6.80;;;;;;;25.39;54.49;101372.92;2350123;75;51675;-74
2022/08/25 05:27:38;;;;;;;10.93;6.62;;;;;;;25.38;54.64;101378.03;2348343;74;51397;-73
2022/08/25 05:30:41;;;;;;;15.05;7.45;;;;;;;25.39;54.67;101377.51;2350083;75;50352;-73
2022/08/25 05:33:43;;;;;;;14.60;7.47;;;;;;;25.38;54.77;101378.03;2350105;75;50662;-72
2022/08/25 05:36:46;;;;;;;13.40;8.13;;;;;;;25.38;54.80;101383.95;2312565;75;49974;-73
2022/08/25 05:39:48;;;;;;;16.23;8.20;;;;;;;25.38;54.82;101388.88;2399858;73;51538;-75
2022/08/25 05:42:50;;;;;;;10.85;8.13;;;;;;;25.39;54.77;101389.17;2416385;73;50398;-75
2022/08/25 05:45:56;;;;;;;14.18;8.88;;;;;;;25.40;54.83;101390.83;2379910;73;51439;-75
2022/08/25 05:48:59;;;;;;;18.48;9.33;;;;;;;25.39;54.79;101389.17;2416315;73;51678;-73
2022/08/25 05:52:01;;;;;;;17.70;9.10;;;;;;;25.39;54.78;101387.81;2416223;73;51447;-74
2022/08/25 05:55:04;;;;;;;24.32;9.43;;;;;;;25.38;54.83;101390.23;2416384;73;51501;-72
2022/08/25 05:58:06;;;;;;;21.90;10.10;;;;;;;25.39;54.87;101391.88;2379956;73;50831;-73
2022/08/25 06:04:28;;;;;;;22.27;9.20;;;;;;;25.39;54.93;101392.41;2386170;73;24295;-71
2022/08/25 06:07:30;;;;;;;21.10;8.98;;;;;;;25.40;54.88;101388.64;2377356;73;51462;-71
2022/08/25 06:10:33;;;;;;;19.07;8.80;;;;;;;25.41;54.86;101391.69;2349378;74;49561;-71
2022/08/25 06:13:35;;;;;;;15.78;8.85;;;;;;;25.39;54.91;101393.23;2376592;74;49563;-71
2022/08/25 06:16:38;;;;;;;14.40;8.15;;;;;;;25.37;55.07;101383.13;2399242;74;51482;-70
2022/08/25 06:19:40;;;;;;;12.93;8.53;;;;;;;25.39;55.01;101393.77;2339393;75;51504;-70
2022/08/25 06:22:43;;;;;;;11.33;8.10;;;;;;;25.38;54.99;101391.58;2337957;75;50321;-71
2022/08/25 06:25:52;;;;;;;12.00;8.68;;;;;;;25.39;55.02;101390.53;2366910;75;50718;-71
2022/08/25 06:28:54;;;;;;;12.05;8.58;;;;;;;25.38;55.01;101382.10;2366788;75;51627;-72
2022/08/25 06:31:56;;;;;;;12.50;8.85;;;;;;;25.39;55.06;101385.11;2367139;75;51480;-72
2022/08/25 06:34:59;;;;;;;12.18;8.28;;;;;;;25.38;55.09;101383.45;2312693;75;52358;-72
2022/08/25 06:38:01;;;;;;;13.22;8.80;;;;;;;25.39;55.16;101384.28;2354279;74;50453;-72
2022/08/25 06:41:04;;;;;;;9.75;7.75;;;;;;;25.39;55.15;101389.17;2339371;75;50204;-71
2022/08/25 06:44:07;;;;;;;11.25;8.13;;;;;;;25.38;55.15;101392.94;2338102;75;50517;-73
2022/08/25 06:47:09;;;;;;;10.95;8.55;;;;;;;25.39;55.18;101398.66;2366797;75;51485;-73
2022/08/25 06:50:11;;;;;;;11.03;7.95;;;;;;;25.37;55.19;101399.37;2339408;75;52932;-74
2022/08/25 06:53:13;;;;;;;12.18;7.72;;;;;;;25.36;55.24;101400.44;2367022;75;50699;-74
2022/08/25 06:56:16;;;;;;;10.60;8.28;;;;;;;25.37;55.28;101397.20;2339086;75;50314;-74
2022/08/25 06:59:19;;;;;;;11.93;8.30;;;;;;;25.38;55.37;101409.19;2313042;75;51749;-71
2022/08/25 07:02:21;;;;;;;15.58;8.60;;;;;;;25.37;55.33;101402.09;2366982;75;51468;-71
2022/08/25 07:05:23;;;;;;;10.25;7.87;;;;;;;25.37;55.40;101399.37;2366545;72;50391;-72
2022/08/25 07:08:25;;;;;;;11.80;8.05;;;;;;;25.36;55.46;101403.14;2370506;74;51489;-71
2022/08/25 07:11:28;;;;;;;12.07;8.08;;;;;;;25.36;55.55;101400.44;2362957;75;51503;-71
2022/08/25 07:14:30;;;;;;;10.93;7.83;;;;;;;25.33;55.68;101397.30;2311624;75;51030;-71
2022/08/25 07:17:32;;;;;;;9.85;7.55;;;;;;;25.33;55.66;101395.94;2417997;72;51402;-71
2022/08/25 07:20:40;;;;;;;12.25;8.28;;;;;;;25.32;55.73;101391.58;2447772;72;50251;-71
2022/08/25 07:23:43;;;;;;;11.22;8.08;;;;;;;25.31;55.70;101394.81;2420615;72;51442;-71
2022/08/25 07:26:49;;;;;;;9.83;8.18;;;;;;;25.30;55.71;101395.84;2447493;72;51506;-71
2022/08/25 07:29:49;;;;;;;10.53;8.08;;;;;;;25.29;55.72;101386.06;2407504;72;22348;-71
2022/08/25 07:32:51;;;;;;;11.35;8.18;;;;;;;25.29;55.71;101388.77;2377093;73;50002;-72
2022/08/25 07:35:53;;;;;;;11.08;7.47;;;;;;;25.29;55.84;101389.30;2402499;72;50301;-73
2022/08/25 07:38:56;;;;;;;10.03;7.60;;;;;;;25.28;55.85;101380.34;2337169;74;50095;-72
2022/08/25 07:41:58;;;;;;;9.03;7.60;;;;;;;25.28;56.07;101377.63;2376713;74;50673;-72
2022/08/25 07:45:00;;;;;;;13.35;8.70;;;;;;;25.27;56.02;101369.17;2376652;74;50395;-70
2022/08/25 07:48:05;;;;;;;13.15;7.75;;;;;;;25.33;55.88;101375.63;2349419;74;50096;-71
2022/08/25 07:51:09;;;;;;;20.48;8.00;;;;;;;25.33;55.89;101371.06;2402708;74;50174;-73
2022/08/25 07:54:12;;;;;;;18.30;8.98;;;;;;;25.32;56.05;101376.15;2402650;74;50766;-73
2022/08/25 07:57:14;;;;;;;12.70;7.92;;;;;;;25.32;56.23;101389.70;2375268;74;50363;-74
2022/08/25 08:00:16;;;;;;;11.75;8.80;;;;;;;25.33;56.09;101381.90;2402533;74;50367;-74
2022/08/25 08:03:19;;;;;;;11.00;8.05;;;;;;;25.32;56.18;101382.09;2349240;74;51701;-73
2022/08/25 08:06:23;;;;;;;13.13;8.78;;;;;;;25.32;56.15;101373.97;2362836;75;51576;-73
2022/08/25 08:09:25;;;;;;;14.95;9.03;;;;;;;25.31;56.23;101379.91;2403987;74;50439;-72
2022/08/25 08:12:27;;;;;;;9.63;7.92;;;;;;;25.33;56.26;101372.91;2404480;74;50397;-73
2022/08/25 08:15:30;;;;;;;13.45;8.68;;;;;;;25.34;56.18;101366.47;2377037;73;50257;-72
2022/08/25 08:18:32;;;;;;;12.50;8.68;;;;;;;25.33;56.30;101364.29;2359025;74;50450;-71
2022/08/25 08:21:35;;;;;;;12.80;9.30;;;;;;;25.35;56.25;101369.48;2378760;74;50741;-71
2022/08/25 08:24:38;;;;;;;13.65;8.48;;;;;;;25.35;56.17;101369.48;2378781;74;50761;-71
2022/08/25 08:27:41;;;;;;;13.35;8.90;;;;;;;25.36;56.29;101365.75;2348117;74;49445;-74
2022/08/25 08:30:43;;;;;;;13.05;9.28;;;;;;;25.38;56.33;101355.01;2378880;74;51514;-72
2022/08/25 08:33:47;;;;;;;12.45;9.03;;;;;;;25.39;56.43;101358.55;2378363;74;50282;-71
2022/08/25 08:36:49;;;;;;;15.23;9.20;;;;;;;25.42;56.29;101369.78;2350011;74;49670;-72
2022/08/25 08:39:51;;;;;;;16.32;9.40;;;;;;;25.42;56.34;101358.94;2404282;74;51534;-72
2022/08/25 08:43:05;;;;;;;12.82;9.15;;;;;;;25.44;56.31;101355.20;2376950;74;50295;-71
2022/08/25 08:46:08;;;;;;;17.02;10.65;;;;;;;25.45;56.40;101354.98;2378313;74;51586;-72
2022/08/25 08:49:22;;;;;;;13.53;9.70;;;;;;;25.46;56.30;101344.47;2384000;72;51505;-73
2022/08/25 08:52:28;;;;;;;15.83;10.78;;;;;;;25.49;56.21;101343.20;2390018;74;50127;-71
2022/08/25 08:55:35;;;;;;;17.30;10.70;;;;;;;25.51;56.28;101339.73;2401458;73;51708;-72
2022/08/25 08:59:03;;;;;;;18.23;11.15;;;;;;;25.51;56.45;101343.30;2402193;74;50401;-71
2022/08/25 09:02:06;;;;;;;17.55;11.35;;;;;;;25.53;56.60;101343.08;2365400;74;49455;-71
2022/08/25 09:05:11;;;;;;;17.27;11.48;;;;;;;25.54;56.65;101344.77;2375002;74;51479;-71
2022/08/25 09:08:13;;;;;;;16.17;11.30;;;;;;;25.53;56.79;101349.84;2402293;74;51598;-75
2022/08/25 09:11:25;;;;;;;17.07;11.33;;;;;;;25.52;56.86;101347.67;2376471;74;51610;-72
2022/08/25 09:14:39;;;;;;;16.37;11.03;;;;;;;25.52;56.80;101340.89;2402330;74;50713;-70
2022/08/25 09:18:03;;;;;;;15.30;10.40;;;;;;;25.52;56.85;101344.13;2388928;74;51332;-72
2022/08/25 09:21:09;;;;;;;17.20;10.72;;;;;;;25.53;56.98;101347.97;2385466;74;50418;-71
2022/08/25 09:24:33;;;;;;;16.25;11.65;;;;;;;25.54;56.91;101341.52;2402137;74;49748;-72
2022/08/25 09:27:41;;;;;;;16.17;10.25;;;;;;;25.54;56.91;101339.34;2373590;72;50105;-72
2022/08/25 09:30:46;;;;;;;14.95;10.93;;;;;;;25.54;56.96;101340.69;2388745;74;50408;-72
2022/08/25 09:33:48;;;;;;;15.20;10.72;;;;;;;25.55;56.83;101339.64;2401798;74;50229;-72
2022/08/25 09:36:51;;;;;;;12.80;10.50;;;;;;;25.55;56.92;101336.40;2337969;74;50110;-72
2022/08/25 09:39:54;;;;;;;15.98;11.35;;;;;;;25.55;57.01;101331.51;2401767;74;50296;-71
2022/08/25 09:42:57;;;;;;;13.05;9.68;;;;;;;25.55;57.02;101322.02;2375645;74;50693;-73
2022/08/25 09:46:16;;;;;;;12.25;9.63;;;;;;;25.56;57.08;101323.67;2348623;74;51136;-72
2022/08/25 09:49:18;;;;;;;13.45;9.63;;;;;;;25.55;57.12;101319.31;2401547;74;51428;-73
2022/08/25 09:52:27;;;;;;;15.25;9.40;;;;;;;25.58;56.96;101322.95;2374550;74;51472;-73
2022/08/25 09:55:33;;;;;;;11.93;9.48;;;;;;;25.58;56.97;101317.52;2401859;74;51428;-72
2022/08/25 09:58:35;;;;;;;11.75;9.25;;;;;;;25.60;56.88;101309.48;2396440;74;50294;-71
2022/08/25 10:01:40;;;;;;;11.00;8.83;;;;;;;25.57;57.02;101315.34;2358192;75;50788;-72
2022/08/25 10:04:43;;;;;;;11.68;8.80;;;;;;;25.57;57.06;101307.74;2362476;75;50727;-72
2022/08/25 10:07:57;;;;;;;11.40;8.93;;;;;;;25.60;56.94;101301.89;2335844;75;51658;-73
2022/08/25 10:11:01;;;;;;;13.20;8.70;;;;;;;25.60;56.96;101302.72;2337580;75;53045;-72
2022/08/25 10:14:27;;;;;;;10.32;8.10;;;;;;;25.59;57.05;101305.66;2364315;75;50102;-72
2022/08/25 10:17:31;;;;;;;11.80;8.25;;;;;;;25.57;57.08;101300.44;2362219;74;51349;-71
2022/08/25 10:20:33;;;;;;;11.28;8.03;;;;;;;25.59;57.06;101301.59;2336200;75;51467;-73
2022/08/25 10:23:43;;;;;;;12.40;7.92;;;;;;;25.59;57.03;101297.00;2337466;75;51573;-72
2022/08/25 10:27:10;;;;;;;8.88;8.00;;;;;;;25.60;57.09;101291.05;2336735;75;50109;-73
2022/08/25 10:30:21;;;;;;;10.58;8.30;;;;;;;25.60;57.10;101292.41;2393658;74;51544;-72
2022/08/25 10:33:30;;;;;;;13.20;9.15;;;;;;;25.59;57.18;101286.16;2366267;75;51547;-73
2022/08/25 10:36:57;;;;;;;12.20;8.25;;;;;;;25.57;57.26;101296.38;2338380;75;51952;-73
2022/08/25 10:40:08;;;;;;;10.18;8.13;;;;;;;25.59;57.26;101293.47;2324575;76;50472;-73
2022/08/25 10:43:26;;;;;;;9.95;7.50;;;;;;;25.60;57.22;101292.41;2365585;75;51609;-73
2022/08/25 10:46:46;;;;;;;14.95;7.92;;;;;;;25.62;57.19;101286.25;2342251;75;50288;-72
2022/08/25 10:49:50;;;;;;;12.60;8.08;;;;;;;25.62;57.18;101282.19;2366181;75;51585;-73
2022/08/25 10:53:14;;;;;;;11.38;7.62;;;;;;;25.61;57.29;101271.02;2338844;75;51078;-73
2022/08/25 10:56:20;;;;;;;10.55;7.42;;;;;;;25.58;57.32;101259.27;2366097;75;50101;-71
2022/08/25 10:59:25;;;;;;;10.35;7.15;;;;;;;25.59;57.20;101257.70;2372477;74;51449;-72
2022/08/25 11:02:46;;;;;;;9.20;7.58;;;;;;;25.60;57.29;101250.40;2331546;75;50991;-72
2022/08/25 11:05:51;;;;;;;11.63;7.15;;;;;;;25.60;57.22;101243.09;2357992;72;50793;-72
2022/08/25 11:08:57;;;;;;;11.85;7.70;;;;;;;25.60;57.24;101236.31;2350197;74;51116;-72
2022/08/25 11:12:02;;;;;;;9.50;7.15;;;;;;;25.64;57.08;101247.05;2361845;75;51627;-72
2022/08/25 11:15:10;;;;;;;11.20;7.47;;;;;;;25.62;57.19;101238.30;2359386;75;50428;-71
2022/08/25 11:18:13;;;;;;;14.95;7.72;;;;;;;25.63;57.13;101236.41;2335668;74;52422;-71
2022/08/25 11:21:21;;;;;;;9.05;7.15;;;;;;;25.63;57.16;101240.47;2377361;74;50482;-73
2022/08/25 11:24:39;;;;;;;10.13;7.25;;;;;;;25.64;57.08;101235.38;2362533;74;50729;-72
2022/08/25 11:27:47;;;;;;;11.05;7.40;;;;;;;25.63;57.13;101233.70;2344678;73;52600;-71
2022/08/25 11:30:51;;;;;;;9.78;6.78;;;;;;;25.62;57.03;101222.03;2403877;74;50388;-72
2022/08/25 11:33:53;;;;;;;11.38;7.40;;;;;;;25.63;57.09;101222.33;2375138;72;50678;-72
2022/08/25 11:37:06;;;;;;;12.03;7.33;;;;;;;25.64;56.99;101225.36;2391906;72;51413;-72
2022/08/25 11:40:25;;;;;;;12.68;6.97;;;;;;;25.68;56.88;101222.22;2386097;74;21957;-71
2022/08/25 11:43:49;;;;;;;9.40;7.17;;;;;;;25.68;56.84;101222.22;2390049;72;50357;-71
2022/08/25 11:46:57;;;;;;;10.50;6.80;;;;;;;25.67;56.81;101219.21;2370102;74;51498;-72
2022/08/25 11:50:08;;;;;;;8.80;6.65;;;;;;;25.68;56.80;101216.80;2363639;72;51577;-72
2022/08/25 11:53:16;;;;;;;9.58;6.92;;;;;;;25.67;56.76;101216.50;2349306;73;53161;-72
2022/08/25 11:56:36;;;;;;;10.82;7.05;;;;;;;25.66;56.79;101215.64;2362159;75;51659;-72
2022/08/25 11:59:58;;;;;;;12.60;6.90;;;;;;;25.62;57.05;101215.79;2365756;72;50753;-71
2022/08/25 12:03:00;;;;;;;10.88;6.58;;;;;;;25.62;57.11;101209.02;2396640;74;50656;-72
2022/08/25 12:06:29;;;;;;;12.03;7.50;;;;;;;25.62;57.18;101199.53;2374689;74;51517;-71
2022/08/25 12:09:32;;;;;;;9.48;6.87;;;;;;;25.63;57.11;101186.27;2349963;73;49651;-72
2022/08/25 12:12:40;;;;;;;11.10;6.72;;;;;;;25.69;56.97;101194.05;2402057;74;50414;-72
2022/08/25 12:15:48;;;;;;;14.58;6.85;;;;;;;25.70;56.83;101190.31;2401904;74;51508;-73
2022/08/25 12:18:50;;;;;;;14.93;7.20;;;;;;;25.67;56.86;101182.09;2348753;74;52527;-73
2022/08/25 12:21:54;;;;;;;11.35;7.25;;;;;;;25.66;56.93;101168.75;2357021;75;50530;-72
2022/08/25 12:25:05;;;;;;;11.73;8.28;;;;;;;25.67;56.85;101169.89;2362622;75;50478;-73
2022/08/25 12:28:24;;;;;;;12.25;7.58;;;;;;;25.69;56.82;101177.79;2371543;72;22789;-71
2022/08/25 12:31:47;;;;;;;12.20;8.95;;;;;;;25.67;56.85;101178.03;2377606;74;52581;-72
2022/08/25 12:35:02;;;;;;;18.07;11.20;;;;;;;25.64;56.83;101174.41;2375918;74;49643;-72
2022/08/25 12:38:12;;;;;;;16.17;11.83;;;;;;;25.66;57.02;101174.16;2401644;74;50777;-72
2022/08/25 12:41:20;;;;;;;17.50;11.73;;;;;;;25.66;57.15;101170.09;2402158;74;50421;-72
2022/08/25 12:44:50;;;;;;;18.40;12.15;;;;;;;25.66;57.01;101158.73;2375534;74;53564;-72
2022/08/25 12:47:49;;;;;;;15.65;12.05;;;;;;;25.64;57.18;101146.77;2396779;74;22364;-72
2022/08/25 12:51:08;;;;;;;21.10;11.50;;;;;;;25.67;57.17;101155.52;2352071;73;50809;-72
2022/08/25 12:54:22;;;;;;;20.27;12.07;;;;;;;25.67;57.20;101144.67;2368420;72;50692;-74
2022/08/25 12:57:57;;;;;;;21.68;11.70;;;;;;;25.70;57.05;101142.34;2376455;74;51458;-72
2022/08/25 13:01:15;;;;;;;16.97;11.63;;;;;;;25.71;57.14;101139.94;2381371;72;22378;-73
2022/08/25 13:04:47;;;;;;;16.62;11.68;;;;;;;25.73;57.08;101139.73;2401607;74;50434;-71
2022/08/25 13:08:04;;;;;;;20.43;11.95;;;;;;;25.74;56.83;101142.23;2401808;74;51579;-72
2022/08/25 13:11:18;;;;;;;14.68;10.35;;;;;;;25.78;56.69;101141.25;2389076;74;51656;-71
2022/08/25 13:14:38;;;;;;;19.87;11.22;;;;;;;25.72;57.03;101133.48;2402039;74;51625;-71
2022/08/25 13:17:40;;;;;;;17.57;11.50;;;;;;;25.76;56.68;101141.46;2401662;74;51609;-71
2022/08/25 13:20:42;;;;;;;19.90;11.05;;;;;;;25.76;56.57;101140.11;2374777;74;52347;-71
2022/08/25 13:23:47;;;;;;;26.65;12.20;;;;;;;25.71;56.95;101139.94;2402144;74;51599;-71
2022/08/25 13:26:52;;;;;;;21.45;11.88;;;;;;;25.70;56.97;101134.22;2362541;74;50055;-71
2022/08/25 13:29:57;;;;;;;21.87;12.13;;;;;;;25.69;57.04;101125.80;2376052;72;53119;-74
2022/08/25 13:32:59;;;;;;;30.97;14.53;;;;;;;25.70;56.99;101123.38;2401938;74;51579;-72
2022/08/25 13:39:24;;;;;;;30.45;14.20;;;;;;;25.72;57.06;101114.50;2404176;74;22488;-72
2022/08/25 13:42:26;;;;;;;22.17;11.85;;;;;;;25.76;56.95;101114.88;2375859;74;50094;-72
2022/08/25 13:45:31;;;;;;;27.82;12.65;;;;;;;25.80;56.67;101105.28;2402176;74;51577;-72
2022/08/25 13:48:36;;;;;;;30.57;12.50;;;;;;;25.80;56.71;101104.75;2402337;74;50686;-73
2022/08/25 13:51:40;;;;;;;31.93;12.60;;;;;;;25.80;56.86;101103.92;2403995;73;50179;-73
2022/08/25 13:54:42;;;;;;;22.97;11.13;;;;;;;25.80;56.75;101102.03;2402400;74;50689;-73
2022/08/25 13:57:45;;;;;;;23.77;10.78;;;;;;;25.79;56.86;101096.82;2398294;74;51573;-71
2022/08/25 14:01:06;;;;;;;21.40;11.28;;;;;;;25.80;56.89;101102.03;2350096;74;52758;-72
2022/08/25 14:04:28;;;;;;;20.85;10.60;;;;;;;25.83;56.62;101099.41;2362657;75;50664;-72
2022/08/25 14:07:31;;;;;;;21.27;10.58;;;;;;;25.78;56.79;101097.35;2375464;72;51625;-75
2022/08/25 14:10:42;;;;;;;19.20;9.80;;;;;;;25.80;56.77;101097.97;2356535;74;51534;-72
2022/08/25 14:13:45;;;;;;;20.48;10.32;;;;;;;25.81;56.71;101092.84;2404128;74;50445;-72
2022/08/25 14:17:05;;;;;;;21.17;9.10;;;;;;;25.84;56.70;101092.92;2378037;74;51028;-72
2022/08/25 14:20:20;;;;;;;17.48;8.45;;;;;;;25.84;56.76;101084.79;2377204;74;50843;-72
2022/08/25 14:23:25;;;;;;;23.20;9.08;;;;;;;25.85;56.67;101083.26;2402280;74;51582;-74
2022/08/25 14:26:28;;;;;;;15.10;7.90;;;;;;;25.85;56.67;101083.26;2401965;74;50763;-74
2022/08/25 14:29:30;;;;;;;14.87;8.45;;;;;;;25.85;56.67;101080.55;2402054;74;51529;-73